Time;durP1;ratioP1;P1;durP2;ratioP2;P2;SDS_P1;SDS_P2;PMS_P1;PMS_P2;Temp;Humidity;BMP_temperature;BMP_pressure;BME280_temperature;BME280_humidity;BME280_pressure;Samples;Min_cycle;Max_cycle;Signal;HPM_P1;HPM_P2
2023/10/17 00:02:25;;;;;;;4.03;1.98;;;12.60;77.50;;;;;;7379262;19;20003;-77
2023/10/17 00:04:54;;;;;;;3.50;1.98;;;12.70;77.70;;;;;;7379213;19;19999;-77
2023/10/17 00:07:23;;;;;;;3.33;2.08;;;12.60;77.90;;;;;;7380147;19;20020;-77
2023/10/17 00:09:54;;;;;;;8.82;2.22;;;12.50;77.90;;;;;;7380265;19;20024;-78
2023/10/17 00:12:39;;;;;;;5.93;2.00;;;12.50;78.10;;;;;;7383467;19;20006;-78
2023/10/17 00:15:24;;;;;;;7.72;1.52;;;12.40;78.50;;;;;;7381671;19;20236;-78
2023/10/17 00:17:54;;;;;;;3.10;1.90;;;12.40;78.60;;;;;;7382357;19;20076;-77
2023/10/17 00:20:25;;;;;;;14.50;1.87;;;12.30;78.50;;;;;;7409147;19;20018;-76
2023/10/17 00:22:54;;;;;;;3.83;1.90;;;12.40;78.90;;;;;;7386427;19;20003;-76
2023/10/17 00:25:25;;;;;;;2.53;1.52;;;12.20;78.80;;;;;;7385758;19;20052;-77
2023/10/17 00:27:54;;;;;;;;;;;12.20;79.10;;;;;;7387687;19;20027;-77
2023/10/17 00:33:10;;;;;;;2.50;1.67;;;12.20;79.10;;;;;;7375365;19;20031;-77
2023/10/17 00:35:39;;;;;;;5.65;2.00;;;12.10;79.40;;;;;;7411342;19;20018;-78
2023/10/17 00:38:08;;;;;;;7.40;2.30;;;12.10;79.70;;;;;;7386309;19;20075;-78
2023/10/17 00:40:45;;;;;;;10.38;2.47;;;12.00;79.60;;;;;;7387280;19;20046;-78
2023/10/17 00:43:16;;;;;;;4.93;2.22;;;12.00;79.70;;;;;;7388080;19;20014;-78
2023/10/17 00:45:48;;;;;;;4.53;2.17;;;12.00;79.70;;;;;;7384759;19;20003;-77
2023/10/17 00:48:22;;;;;;;2.72;1.88;;;12.00;79.60;;;;;;7382280;19;20007;-77
2023/10/17 00:50:57;;;;;;;4.15;1.83;;;12.10;79.50;;;;;;7384596;19;20010;-79
2023/10/17 00:53:27;;;;;;;4.60;1.88;;;12.10;79.70;;;;;;7405556;19;20030;-78
2023/10/17 00:55:57;;;;;;;7.78;2.33;;;12.20;79.70;;;;;;7385463;19;20002;-77
2023/10/17 00:58:27;;;;;;;5.78;1.98;;;12.10;79.70;;;;;;7384662;19;20003;-77
2023/10/17 01:01:09;;;;;;;3.60;1.80;;;12.10;79.70;;;;;;7382997;19;20027;-77
2023/10/17 01:03:41;;;;;;;6.57;1.92;;;12.00;79.70;;;;;;7385363;19;20007;-77
2023/10/17 01:06:23;;;;;;;4.88;2.10;;;12.00;79.70;;;;;;7386657;19;20291;-78
2023/10/17 01:08:53;;;;;;;17.67;2.23;;;12.10;79.70;;;;;;7387357;19;20027;-77
2023/10/17 01:11:28;;;;;;;5.30;2.13;;;12.00;79.70;;;;;;7408087;19;20034;-77
2023/10/17 01:13:57;;;;;;;13.32;2.40;;;12.00;79.70;;;;;;7384160;19;20086;-78
2023/10/17 01:16:31;;;;;;;5.22;2.00;;;12.10;79.80;;;;;;7386348;19;20019;-78
2023/10/17 01:19:04;;;;;;;4.40;2.28;;;12.00;80.00;;;;;;7384064;19;20282;-79
2023/10/17 01:21:33;;;;;;;3.97;1.92;;;12.00;80.80;;;;;;7386284;19;20003;-77
2023/10/17 01:24:08;;;;;;;3.05;1.55;;;12.00;80.20;;;;;;7393362;19;20006;-77
2023/10/17 01:26:38;;;;;;;9.18;1.90;;;11.90;80.00;;;;;;7422188;19;20070;-78
2023/10/17 01:29:10;;;;;;;3.03;1.77;;;11.90;80.20;;;;;;7386944;19;20003;-78
2023/10/17 01:31:42;;;;;;;7.85;2.20;;;11.90;80.00;;;;;;7388084;19;20006;-81
2023/10/17 01:34:12;;;;;;;5.05;1.98;;;11.90;80.20;;;;;;7385102;19;20038;-78
2023/10/17 01:36:42;;;;;;;4.30;1.95;;;11.90;80.60;;;;;;7384776;19;20025;-77
2023/10/17 01:39:14;;;;;;;4.05;2.17;;;11.90;80.40;;;;;;7385802;19;20224;-78
2023/10/17 01:41:47;;;;;;;4.80;2.10;;;11.90;80.20;;;;;;7407459;19;20083;-77
2023/10/17 01:44:16;;;;;;;4.30;2.13;;;12.00;80.30;;;;;;7384820;19;20007;-78
2023/10/17 01:46:46;;;;;;;6.88;2.50;;;12.00;80.10;;;;;;7384590;19;20007;-77
2023/10/17 01:49:18;;;;;;;4.15;2.17;;;11.90;80.10;;;;;;7385023;19;20007;-77
2023/10/17 01:51:49;;;;;;;2.83;1.80;;;11.90;80.20;;;;;;7383928;19;20003;-77
2023/10/17 01:54:21;;;;;;;6.57;2.20;;;11.90;80.50;;;;;;7383409;19;20006;-76
2023/10/17 01:56:50;;;;;;;7.45;2.05;;;11.90;80.50;;;;;;7384032;19;20054;-77
2023/10/17 01:59:25;;;;;;;5.07;2.20;;;11.90;80.40;;;;;;7405260;19;20027;-77
2023/10/17 02:01:56;;;;;;;5.25;2.22;;;11.80;80.50;;;;;;7383636;19;20055;-77
2023/10/17 02:04:25;;;;;;;2.47;1.73;;;11.80;80.50;;;;;;7387091;19;20381;-77
2023/10/17 02:06:54;;;;;;;3.67;2.05;;;11.80;80.80;;;;;;7387068;19;20010;-77
2023/10/17 02:09:44;;;;;;;5.60;1.92;;;11.80;80.80;;;;;;7384339;19;20010;-76
2023/10/17 02:12:13;;;;;;;5.53;2.33;;;11.80;81.10;;;;;;7385709;19;20003;-76
2023/10/17 02:14:42;;;;;;;4.75;1.83;;;11.70;81.20;;;;;;7405782;19;20006;-77
2023/10/17 02:17:15;;;;;;;4.90;2.10;;;11.70;81.30;;;;;;7382741;19;20066;-77
2023/10/17 02:19:44;;;;;;;4.10;2.20;;;11.70;81.50;;;;;;7382612;19;20114;-77
2023/10/17 02:22:16;;;;;;;3.90;2.30;;;11.60;81.40;;;;;;7383453;19;20066;-78
2023/10/17 02:24:47;;;;;;;4.25;1.88;;;11.60;81.70;;;;;;7385964;19;20017;-78
2023/10/17 02:27:21;;;;;;;6.00;2.03;;;11.60;81.70;;;;;;7384013;19;20018;-78
2023/10/17 02:29:53;;;;;;;3.40;1.90;;;11.50;81.70;;;;;;7384088;19;20007;-78
2023/10/17 02:32:21;;;;;;;4.80;2.08;;;11.40;81.80;;;;;;7411094;19;20010;-78
2023/10/17 02:34:50;;;;;;;6.63;2.13;;;11.30;81.90;;;;;;7380356;19;20011;-77
2023/10/17 02:37:29;;;;;;;4.07;2.15;;;11.40;82.20;;;;;;7382436;19;20003;-77
2023/10/17 02:40:09;;;;;;;2.53;1.92;;;11.30;82.70;;;;;;7381458;19;20068;-77
2023/10/17 02:42:38;;;;;;;7.30;2.08;;;11.20;82.80;;;;;;7381480;19;20098;-77
2023/10/17 02:45:08;;;;;;;2.63;2.00;;;11.20;82.80;;;;;;7380978;19;20369;-77
2023/10/17 02:47:39;;;;;;;4.93;2.15;;;11.30;82.90;;;;;;7403156;19;20074;-77
2023/10/17 02:50:20;;;;;;;3.85;2.08;;;11.20;82.80;;;;;;7381053;19;20003;-77
2023/10/17 02:52:51;;;;;;;2.85;2.20;;;11.30;83.00;;;;;;7380897;19;20003;-76
2023/10/17 02:55:28;;;;;;;5.85;2.03;;;11.20;82.90;;;;;;7380815;19;20007;-76
2023/10/17 02:57:57;;;;;;;3.10;1.90;;;11.20;82.70;;;;;;7381340;19;20060;-77
2023/10/17 03:00:33;;;;;;;6.95;1.95;;;11.20;82.60;;;;;;7381480;19;20070;-77
2023/10/17 03:03:11;;;;;;;5.55;2.45;;;11.20;82.70;;;;;;7381945;19;20013;-77
2023/10/17 03:05:44;;;;;;;10.00;2.22;;;10.90;83.10;;;;;;7402920;19;20070;-77
2023/10/17 03:08:15;;;;;;;4.80;2.33;;;11.00;83.20;;;;;;7381867;19;20002;-78
2023/10/17 03:10:52;;;;;;;4.88;2.33;;;11.10;83.30;;;;;;7381648;19;20007;-77
2023/10/17 03:13:29;;;;;;;4.47;2.35;;;11.00;83.20;;;;;;7380536;19;20372;-77
2023/10/17 03:16:14;;;;;;;3.45;2.10;;;11.10;83.30;;;;;;7381116;19;20402;-77
2023/10/17 03:18:45;;;;;;;;;;;11.10;83.40;;;;;;7380745;19;20062;-77
2023/10/17 03:21:11;;;;;;;5.63;2.30;;;11.10;83.40;;;;;;7380750;19;19921;-77
2023/10/17 03:23:46;;;;;;;7.43;2.22;;;11.10;83.30;;;;;;7401730;19;20222;-78
2023/10/17 03:26:19;;;;;;;5.30;2.22;;;11.10;83.40;;;;;;7382247;19;20350;-78
2023/10/17 03:28:49;;;;;;;4.57;2.40;;;11.00;83.50;;;;;;7381305;19;20007;-77
2023/10/17 03:31:24;;;;;;;4.80;2.23;;;11.10;83.50;;;;;;7380859;19;20018;-77
2023/10/17 03:33:58;;;;;;;3.30;2.40;;;11.00;83.60;;;;;;7382115;19;20034;-77
2023/10/17 03:36:41;;;;;;;6.10;2.58;;;11.10;83.70;;;;;;7381661;19;20011;-77
2023/10/17 03:39:21;;;;;;;3.35;2.25;;;11.00;83.60;;;;;;7383118;19;20024;-78
2023/10/17 03:41:56;;;;;;;5.32;2.30;;;11.10;83.70;;;;;;7382699;19;20028;-78
2023/10/17 03:44:30;;;;;;;4.15;2.22;;;11.00;83.80;;;;;;7404575;19;20337;-78
2023/10/17 03:47:03;;;;;;;5.57;2.38;;;11.10;83.80;;;;;;7382722;19;20014;-77
2023/10/17 03:49:36;;;;;;;4.82;2.30;;;11.10;83.70;;;;;;7380013;19;20017;-76
2023/10/17 03:52:06;;;;;;;3.65;2.40;;;11.10;83.80;;;;;;7379641;19;20268;-77
2023/10/17 03:54:38;;;;;;;7.07;2.65;;;11.20;84.00;;;;;;7386294;19;20005;-77
2023/10/17 03:57:15;;;;;;;4.90;2.80;;;11.10;83.80;;;;;;7386649;19;20256;-77
2023/10/17 03:59:51;;;;;;;5.57;2.60;;;11.20;83.70;;;;;;7395325;19;20010;-76
2023/10/17 04:02:24;;;;;;;8.65;2.38;;;11.20;83.70;;;;;;7409186;19;20027;-77
2023/10/17 04:04:55;;;;;;;6.60;2.60;;;11.10;83.60;;;;;;7386585;19;20013;-77
2023/10/17 04:07:27;;;;;;;4.30;2.13;;;11.10;83.70;;;;;;7387144;19;19999;-77
2023/10/17 04:10:17;;;;;;;7.72;2.65;;;11.10;83.70;;;;;;7387632;19;20010;-77
2023/10/17 04:13:06;;;;;;;4.68;2.75;;;11.10;83.80;;;;;;7386997;19;20002;-77
2023/10/17 04:15:35;;;;;;;5.50;2.35;;;11.10;83.70;;;;;;7387360;19;20024;-77
2023/10/17 04:18:04;;;;;;;7.43;2.55;;;11.10;83.90;;;;;;7397196;19;20008;-77
2023/10/17 04:20:36;;;;;;;8.30;2.63;;;11.10;84.00;;;;;;7412097;19;20011;-77
2023/10/17 04:23:05;;;;;;;8.65;2.70;;;11.10;84.00;;;;;;7387125;19;19998;-77
2023/10/17 04:25:38;;;;;;;4.40;2.90;;;11.10;84.00;;;;;;7386319;19;20002;-77
2023/10/17 04:28:16;;;;;;;5.85;2.65;;;11.20;84.10;;;;;;7387548;19;20002;-78
2023/10/17 04:30:48;;;;;;;3.03;2.30;;;11.20;84.10;;;;;;7390644;19;20027;-77
2023/10/17 04:33:19;;;;;;;8.70;3.15;;;11.10;84.00;;;;;;7392751;19;20027;-77
2023/10/17 04:35:54;;;;;;;5.13;2.78;;;11.20;84.10;;;;;;7389927;19;20007;-79
2023/10/17 04:38:26;;;;;;;7.60;3.35;;;11.30;84.10;;;;;;7414872;19;20027;-77
2023/10/17 04:41:11;;;;;;;8.35;2.65;;;11.20;84.00;;;;;;7393828;19;20017;-77
2023/10/17 04:43:54;;;;;;;4.50;2.75;;;11.20;84.20;;;;;;7388269;19;20011;-78
2023/10/17 04:46:25;;;;;;;6.05;2.42;;;11.20;84.00;;;;;;7388187;19;20011;-77
2023/10/17 04:48:52;;;;;;;5.25;2.75;;;11.20;84.10;;;;;;7385752;19;20095;-77
2023/10/17 04:51:26;;;;;;;12.68;3.13;;;11.20;84.30;;;;;;7386778;19;20043;-78
2023/10/17 04:53:55;;;;;;;10.95;2.70;;;11.20;84.40;;;;;;7386253;19;20234;-78
2023/10/17 04:56:24;;;;;;;5.13;2.85;;;11.20;84.40;;;;;;7407203;19;20014;-78
2023/10/17 04:58:56;;;;;;;5.22;2.67;;;11.20;84.40;;;;;;7384606;19;20377;-77
2023/10/17 05:01:39;;;;;;;5.85;2.83;;;11.20;84.30;;;;;;7385594;19;20030;-77
2023/10/17 05:04:20;;;;;;;5.95;2.72;;;11.20;84.40;;;;;;7384387;19;20025;-76
2023/10/17 06:17:27;;;;;;;8.00;3.42;;;11.10;85.50;;;;;;7406951;19;20013;-77
2023/10/17 06:20:02;;;;;;;4.63;3.00;;;11.10;85.60;;;;;;7381948;19;20002;-77
2023/10/17 06:30:45;;;;;;;6.75;3.30;;;11.10;85.70;;;;;;7383534;19;20007;-77
2023/10/17 06:33:19;;;;;;;15.82;4.07;;;11.00;85.60;;;;;;7387077;19;20015;-77
2023/10/17 06:35:55;;;;;;;9.25;3.60;;;11.00;85.70;;;;;;7382676;19;20010;-77
2023/10/17 06:38:27;;;;;;;6.93;3.28;;;11.00;86.00;;;;;;7405473;19;20132;-77
2023/10/17 06:41:11;;;;;;;4.75;3.17;;;11.00;86.00;;;;;;7383403;19;20333;-77
2023/10/17 06:43:39;;;;;;;6.90;3.20;;;11.10;86.10;;;;;;7382847;19;20027;-77
2023/10/17 06:46:12;;;;;;;6.32;3.40;;;11.10;86.00;;;;;;7383496;19;20006;-76
2023/10/17 06:48:49;;;;;;;5.80;3.60;;;11.10;85.80;;;;;;7383024;19;20006;-77
2023/10/17 06:51:30;;;;;;;9.80;3.47;;;11.20;85.60;;;;;;7383534;19;20010;-75
2023/10/17 06:54:05;;;;;;;11.07;3.95;;;11.20;85.70;;;;;;7384256;19;20025;-75
2023/10/17 06:56:38;;;;;;;6.25;3.30;;;11.20;85.60;;;;;;7406315;19;20030;-74
2023/10/17 06:59:21;;;;;;;11.10;3.80;;;11.20;86.50;;;;;;7383542;19;20010;-75
2023/10/17 07:02:08;;;;;;;8.90;3.50;;;11.20;85.60;;;;;;7384168;19;20019;-76
2023/10/17 07:04:37;;;;;;;6.07;3.60;;;11.30;85.50;;;;;;7383185;19;20070;-76
2023/10/17 07:07:09;;;;;;;10.80;3.83;;;11.30;85.30;;;;;;7382777;19;20010;-76
2023/10/17 07:09:42;;;;;;;7.22;3.72;;;11.30;85.50;;;;;;7398109;19;20012;-77
2023/10/17 07:12:16;;;;;;;8.35;3.40;;;11.40;85.40;;;;;;7395643;19;20003;-75
2023/10/17 07:14:48;;;;;;;6.90;3.60;;;11.40;85.30;;;;;;7386329;19;20006;-73
2023/10/17 07:17:26;;;;;;;10.50;4.10;;;11.40;85.00;;;;;;7402000;19;20006;-73
2023/10/17 07:20:12;;;;;;;9.40;3.70;;;11.50;84.90;;;;;;7381473;19;20006;-77
2023/10/17 07:22:53;;;;;;;19.27;4.10;;;11.50;84.60;;;;;;7384367;19;20020;-78
2023/10/17 07:25:22;;;;;;;11.90;3.58;;;11.50;84.60;;;;;;7384718;19;20010;-80
2023/10/17 07:27:52;;;;;;;11.13;3.53;;;11.60;84.70;;;;;;7381682;19;20002;-76
2023/10/17 07:30:35;;;;;;;8.05;3.80;;;11.60;84.70;;;;;;7381712;19;20013;-76
2023/10/17 07:33:05;;;;;;;10.25;3.50;;;11.60;84.30;;;;;;7380919;19;20024;-75
2023/10/17 07:35:36;;;;;;;10.27;3.55;;;11.70;84.30;;;;;;7400811;19;20007;-74
2023/10/17 07:38:07;;;;;;;6.20;3.72;;;11.70;84.30;;;;;;7380130;19;19999;-74
2023/10/17 07:40:42;;;;;;;6.57;3.45;;;11.80;85.00;;;;;;7380455;19;20359;-74
2023/10/17 07:43:12;;;;;;;13.13;3.95;;;11.80;85.00;;;;;;7380370;19;20048;-74
2023/10/17 07:45:41;;;;;;;9.55;4.30;;;11.90;84.10;;;;;;7380675;19;20002;-74
2023/10/17 07:48:23;;;;;;;10.52;4.05;;;12.00;84.10;;;;;;7380695;19;20002;-73
2023/10/17 07:50:53;;;;;;;8.15;4.18;;;12.00;83.80;;;;;;7381226;19;20010;-77
2023/10/17 07:53:26;;;;;;;13.70;4.60;;;12.00;83.80;;;;;;7401834;19;20007;-76
2023/10/17 07:56:03;;;;;;;14.90;4.05;;;12.10;83.60;;;;;;7378351;19;20027;-76
2023/10/17 07:58:39;;;;;;;15.45;3.95;;;12.10;83.60;;;;;;7380317;19;20022;-76
2023/10/17 08:01:14;;;;;;;13.02;4.15;;;12.10;83.80;;;;;;7380420;19;20003;-75
2023/10/17 08:03:49;;;;;;;12.52;4.80;;;12.20;83.80;;;;;;7379670;19;20234;-75
2023/10/17 08:06:22;;;;;;;6.35;4.00;;;12.20;83.60;;;;;;7380564;19;20002;-75
2023/10/17 08:08:53;;;;;;;8.85;4.22;;;12.30;83.50;;;;;;7382957;19;20035;-75
2023/10/17 08:11:31;;;;;;;8.15;4.28;;;12.30;83.30;;;;;;7403763;19;20020;-78
2023/10/17 08:14:09;;;;;;;12.20;4.53;;;12.30;83.20;;;;;;7383434;19;20003;-75
2023/10/17 08:16:39;;;;;;;7.20;3.67;;;12.40;83.30;;;;;;7378835;19;20365;-75
2023/10/17 08:19:15;;;;;;;10.80;5.03;;;12.40;83.10;;;;;;7379802;19;20011;-76
2023/10/17 08:21:59;;;;;;;11.52;4.55;;;12.40;82.90;;;;;;7380221;19;20011;-77
2023/10/17 08:24:33;;;;;;;6.22;4.00;;;12.50;82.90;;;;;;7379457;19;20412;-75
2023/10/17 08:30:00;;;;;;;15.68;4.72;;;12.50;82.80;;;;;;7377213;19;20014;-78
2023/10/17 08:32:46;;;;;;;12.98;4.65;;;12.50;82.70;;;;;;7404610;19;20003;-78
2023/10/17 08:35:20;;;;;;;9.48;4.43;;;12.60;82.90;;;;;;7376835;19;20015;-77
2023/10/17 08:37:52;;;;;;;13.88;4.82;;;12.60;82.80;;;;;;7379130;19;20039;-77
2023/10/17 08:40:29;;;;;;;9.27;4.30;;;12.60;82.70;;;;;;7386553;19;20007;-76
2023/10/17 08:43:02;;;;;;;10.18;4.10;;;12.60;82.70;;;;;;7388275;19;20007;-77
2023/10/17 08:45:37;;;;;;;12.65;4.82;;;12.70;82.80;;;;;;7387389;19;20031;-77
2023/10/17 08:48:06;;;;;;;7.88;4.05;;;12.70;82.50;;;;;;7385517;19;20082;-77
2023/10/17 08:50:41;;;;;;;18.00;4.28;;;12.70;82.60;;;;;;7406430;19;20023;-78
2023/10/17 08:53:20;;;;;;;10.38;4.75;;;12.80;82.50;;;;;;7389100;19;20034;-78
2023/10/17 08:55:53;;;;;;;11.07;5.20;;;12.80;82.40;;;;;;7385854;19;20003;-79
2023/10/17 08:58:30;;;;;;;17.65;5.10;;;12.90;82.70;;;;;;7389002;19;20010;-77
2023/10/17 09:01:07;;;;;;;10.15;4.38;;;12.90;82.70;;;;;;7384795;19;20003;-78
2023/10/17 09:03:43;;;;;;;8.85;4.55;;;12.90;82.50;;;;;;7387091;19;20006;-78
2023/10/17 09:09:17;;;;;;;10.48;4.80;;;13.00;82.30;;;;;;7391613;19;20018;-80
2023/10/17 09:21:47;;;;;;;9.40;4.70;;;13.00;82.20;;;;;;7400739;19;20031;-79
2023/10/17 09:27:39;;;;;;;17.87;4.67;;;13.00;82.50;;;;;;7404550;19;19999;-77
2023/10/17 09:30:17;;;;;;;10.43;4.70;;;13.00;82.60;;;;;;7362815;19;20181;-77
2023/10/17 09:32:46;;;;;;;14.90;4.18;;;13.00;82.70;;;;;;7392791;19;20010;-75
2023/10/17 09:35:18;;;;;;;21.60;4.40;;;13.00;82.80;;;;;;7406055;19;20284;-76
2023/10/17 09:38:00;;;;;;;11.25;4.97;;;13.10;82.80;;;;;;7384668;19;20058;-77
2023/10/17 09:40:30;;;;;;;10.25;4.75;;;13.10;82.80;;;;;;7388515;19;20051;-78
2023/10/17 09:43:00;;;;;;;7.55;4.25;;;13.10;82.90;;;;;;7384823;19;19999;-77
2023/10/17 09:45:35;;;;;;;9.13;4.47;;;13.10;83.70;;;;;;7364960;19;20010;-76
2023/10/17 09:48:09;;;;;;;17.17;5.15;;;13.20;83.00;;;;;;7408494;19;20013;-79
2023/10/17 09:50:42;;;;;;;7.47;4.18;;;13.30;83.10;;;;;;7409274;19;20091;-76
2023/10/17 09:53:17;;;;;;;9.57;4.20;;;13.30;83.10;;;;;;7383694;19;20218;-73
2023/10/17 09:55:50;;;;;;;9.23;4.78;;;13.40;83.20;;;;;;7382273;19;20370;-75
2023/10/17 09:58:24;;;;;;;12.75;4.45;;;13.40;83.20;;;;;;7384244;19;20062;-75
2023/10/17 10:00:56;;;;;;;10.60;4.50;;;13.40;83.10;;;;;;7386101;19;20011;-75
2023/10/17 10:03:40;;;;;;;7.20;4.82;;;13.50;83.20;;;;;;7386042;19;20374;-81
2023/10/17 10:13:13;;;;;;;7.57;4.35;;;13.60;83.00;;;;;;7405460;19;20232;-82
2023/10/17 10:15:58;;;;;;;11.65;4.05;;;13.70;83.10;;;;;;7385342;19;20064;-76
2023/10/17 10:18:57;;;;;;;14.23;4.75;;;13.70;83.30;;;;;;7379560;19;20007;-77
2023/10/17 10:21:58;;;;;;;19.67;4.85;;;13.80;83.40;;;;;;7380375;19;20024;-75
2023/10/17 10:24:29;;;;;;;15.00;4.55;;;13.80;83.50;;;;;;7380536;19;19998;-76
2023/10/17 10:27:24;;;;;;;20.27;4.95;;;13.80;83.30;;;;;;7380821;19;20010;-77
2023/10/17 10:29:56;;;;;;;19.70;5.00;;;13.90;83.10;;;;;;7380513;19;20011;-76
2023/10/17 10:32:33;;;;;;;16.73;4.68;;;13.90;83.00;;;;;;7401845;19;20018;-75
2023/10/17 10:35:03;;;;;;;7.57;4.30;;;14.00;83.80;;;;;;7379518;19;20063;-74
2023/10/17 10:37:32;;;;;;;10.20;4.50;;;14.10;83.90;;;;;;7380228;19;20216;-75
2023/10/17 10:40:16;;;;;;;7.30;4.07;;;14.20;84.10;;;;;;7379781;19;20389;-76
2023/10/17 10:46:00;;;;;;;14.52;4.20;;;14.20;83.30;;;;;;7382873;19;20074;-78
2023/10/17 10:48:29;;;;;;;13.27;4.05;;;14.20;83.50;;;;;;7382741;19;20015;-77
2023/10/17 10:51:00;;;;;;;13.93;4.63;;;14.30;83.70;;;;;;7383086;19;20040;-77
2023/10/17 10:53:31;;;;;;;7.15;4.30;;;14.30;83.70;;;;;;7403839;19;20007;-78
2023/10/17 10:56:02;;;;;;;11.18;4.15;;;14.30;83.50;;;;;;7381183;19;20014;-78
2023/10/17 10:58:35;;;;;;;12.07;4.60;;;14.40;83.40;;;;;;7385295;19;20010;-79
2023/10/17 11:01:10;;;;;;;9.38;4.72;;;14.40;83.80;;;;;;7383644;19;20024;-79
2023/10/17 11:07:22;;;;;;;12.10;4.35;;;14.40;83.10;;;;;;7379706;19;20015;-77
2023/10/17 11:10:06;;;;;;;11.02;4.10;;;14.50;83.10;;;;;;7381481;19;20006;-78
2023/10/17 11:12:35;;;;;;;8.15;4.40;;;14.50;83.30;;;;;;7380889;19;20197;-75
2023/10/17 11:15:14;;;;;;;13.05;4.50;;;14.60;83.10;;;;;;7379022;19;20054;-75
2023/10/17 11:17:46;;;;;;;13.98;4.93;;;14.60;83.30;;;;;;7397277;19;19998;-74
2023/10/17 11:20:18;;;;;;;9.82;5.10;;;14.60;83.20;;;;;;7401485;19;20014;-75
2023/10/17 11:22:46;;;;;;;;;;;14.60;83.00;;;;;;7379279;19;20006;-75
2023/10/17 11:25:21;;;;;;;12.93;5.00;;;14.70;82.70;;;;;;7379038;19;19956;-74
2023/10/17 11:27:53;;;;;;;12.50;4.88;;;14.70;82.20;;;;;;7379200;19;20371;-74
2023/10/17 11:30:32;;;;;;;13.43;4.32;;;14.70;82.30;;;;;;7378277;19;20003;-74
2023/10/17 11:33:10;;;;;;;11.27;5.25;;;14.80;82.50;;;;;;7378029;19;20014;-74
2023/10/17 11:35:39;;;;;;;11.75;4.60;;;14.80;82.40;;;;;;7400268;19;20003;-74
2023/10/17 11:38:25;;;;;;;15.95;5.35;;;14.90;82.50;;;;;;7379111;19;20019;-74
2023/10/17 11:40:54;;;;;;;21.38;9.48;;;14.90;82.50;;;;;;7378444;19;20029;-74
2023/10/17 11:43:28;;;;;;;12.32;5.30;;;15.00;82.80;;;;;;7378846;19;20010;-74
2023/10/17 11:45:59;;;;;;;18.35;5.47;;;15.00;82.40;;;;;;7380863;19;20007;-75
2023/10/17 11:48:33;;;;;;;19.85;5.22;;;15.10;82.80;;;;;;7381278;19;20083;-75
2023/10/17 11:51:16;;;;;;;13.38;5.07;;;15.20;82.70;;;;;;7386355;19;20216;-75
2023/10/17 11:54:07;;;;;;;13.65;4.57;;;15.20;82.60;;;;;;7390979;19;20090;-75
2023/10/17 11:56:37;;;;;;;7.85;4.32;;;15.20;82.70;;;;;;7404127;19;20007;-75
2023/10/17 11:59:10;;;;;;;11.13;4.90;;;15.30;82.80;;;;;;7382962;19;20019;-75
2023/10/17 12:01:39;;;;;;;13.48;6.15;;;15.40;82.60;;;;;;7380062;19;20003;-74
2023/10/17 12:04:11;;;;;;;17.38;5.80;;;15.50;81.90;;;;;;7379796;19;20007;-74
2023/10/17 12:06:40;;;;;;;13.90;5.95;;;15.50;81.70;;;;;;7380545;19;20007;-74
2023/10/17 12:09:22;;;;;;;17.30;5.47;;;15.60;80.70;;;;;;7379875;19;20020;-74
2023/10/17 12:11:53;;;;;;;8.90;4.97;;;15.60;80.70;;;;;;7379699;19;20062;-75
2023/10/17 12:14:23;;;;;;;26.03;6.57;;;15.60;81.20;;;;;;7404442;19;20031;-74
2023/10/17 12:16:53;;;;;;;14.68;4.53;;;15.70;81.00;;;;;;7385305;19;20017;-75
2023/10/17 12:19:26;;;;;;;14.43;4.65;;;15.80;80.80;;;;;;7387039;19;20470;-74
2023/10/17 12:21:55;;;;;;;8.80;4.40;;;15.80;81.10;;;;;;7387582;19;20022;-76
2023/10/17 12:24:28;;;;;;;17.85;4.97;;;15.80;80.90;;;;;;7388847;19;20082;-75
2023/10/17 12:26:57;;;;;;;10.25;4.60;;;15.90;81.30;;;;;;7387623;19;20370;-73
2023/10/17 12:29:28;;;;;;;11.88;4.18;;;16.00;81.50;;;;;;7409066;19;20013;-75
2023/10/17 12:31:57;;;;;;;10.48;4.65;;;16.00;81.50;;;;;;7386251;19;20394;-76
2023/10/17 12:34:29;;;;;;;9.77;4.38;;;16.10;81.20;;;;;;7388851;19;20028;-77
2023/10/17 12:37:03;;;;;;;10.52;4.28;;;16.10;81.20;;;;;;7386822;19;20010;-76
2023/10/17 12:39:32;;;;;;;10.77;4.07;;;16.10;81.30;;;;;;7387940;19;20055;-77
2023/10/17 12:42:01;;;;;;;10.40;4.13;;;16.20;81.40;;;;;;7385423;19;20475;-75
2023/10/17 12:44:31;;;;;;;6.50;3.60;;;16.20;81.50;;;;;;7405578;19;20003;-75
2023/10/17 12:47:00;;;;;;;7.72;4.18;;;16.30;81.50;;;;;;7385805;19;20002;-74
2023/10/17 12:49:33;;;;;;;14.32;4.18;;;16.30;81.20;;;;;;7386765;19;20023;-74
2023/10/17 12:52:01;;;;;;;12.77;4.40;;;16.40;81.00;;;;;;7386216;19;20007;-73
2023/10/17 12:54:30;;;;;;;9.27;4.05;;;16.40;81.00;;;;;;7386250;19;20336;-75
2023/10/17 12:56:59;;;;;;;10.25;4.55;;;16.50;81.10;;;;;;7384281;19;19999;-76
2023/10/17 12:59:28;;;;;;;16.85;4.22;;;16.50;81.30;;;;;;7411219;19;20013;-75
2023/10/17 13:01:56;;;;;;;12.27;4.40;;;16.50;82.30;;;;;;7387644;19;20366;-73
2023/10/17 13:04:26;;;;;;;10.95;4.30;;;16.50;81.50;;;;;;7385805;19;20014;-74
2023/10/17 13:06:58;;;;;;;14.45;5.15;;;16.60;81.60;;;;;;7385443;19;20007;-73
2023/10/17 13:09:33;;;;;;;11.13;4.93;;;16.60;81.60;;;;;;7386274;19;20007;-78
2023/10/17 13:12:03;;;;;;;16.42;5.65;;;16.60;81.10;;;;;;7388810;19;20141;-77
2023/10/17 13:14:32;;;;;;;18.83;5.70;;;16.60;81.00;;;;;;7408117;19;20014;-75
2023/10/17 13:17:01;;;;;;;20.55;4.10;;;16.60;82.00;;;;;;7384197;19;20023;-75
2023/10/17 13:19:33;;;;;;;20.55;4.35;;;16.60;81.00;;;;;;7384659;19;20300;-75
2023/10/17 13:22:08;;;;;;;24.13;4.57;;;16.60;81.20;;;;;;7385178;19;19999;-77
2023/10/17 13:24:37;;;;;;;12.93;3.95;;;16.60;81.50;;;;;;7385425;19;20010;-76
2023/10/17 13:27:08;;;;;;;15.15;4.65;;;16.60;82.00;;;;;;7385571;19;20048;-76
2023/10/17 13:29:36;;;;;;;12.40;4.32;;;16.60;82.00;;;;;;7406111;19;20383;-76
2023/10/17 13:32:07;;;;;;;11.55;4.07;;;16.60;82.10;;;;;;7384968;19;20461;-76
2023/10/17 13:34:37;;;;;;;12.15;4.57;;;16.70;82.00;;;;;;7384738;19;20058;-75
2023/10/17 13:37:09;;;;;;;12.73;4.15;;;16.70;82.00;;;;;;7382837;19;20418;-74
2023/10/17 13:39:38;;;;;;;8.80;4.25;;;16.70;82.00;;;;;;7383395;19;20011;-75
2023/10/17 13:42:09;;;;;;;13.10;3.97;;;16.80;82.60;;;;;;7384854;19;20055;-74
2023/10/17 13:44:38;;;;;;;11.18;4.47;;;16.80;82.80;;;;;;7408966;19;20018;-77
2023/10/17 13:47:08;;;;;;;13.88;4.40;;;16.90;82.60;;;;;;7388170;19;20006;-76
2023/10/17 13:49:38;;;;;;;11.48;3.72;;;16.90;82.70;;;;;;7386521;19;20009;-77
2023/10/17 13:52:10;;;;;;;14.33;4.07;;;16.90;82.80;;;;;;7383414;19;20022;-77
2023/10/17 13:54:40;;;;;;;14.13;4.03;;;16.90;83.10;;;;;;7384735;19;20065;-77
2023/10/17 13:57:09;;;;;;;11.02;4.57;;;16.90;83.30;;;;;;7382758;19;20070;-75
2023/10/17 13:59:46;;;;;;;13.38;3.95;;;16.90;83.20;;;;;;7403483;19;20083;-77
2023/10/17 14:02:17;;;;;;;20.05;5.25;;;16.90;83.30;;;;;;7382892;19;20003;-78
2023/10/17 14:04:47;;;;;;;10.65;3.63;;;16.90;84.00;;;;;;7385215;19;20010;-78
2023/10/17 14:07:18;;;;;;;11.45;3.90;;;16.90;84.00;;;;;;7383726;19;20386;-76
2023/10/17 14:09:47;;;;;;;10.00;3.45;;;16.90;83.50;;;;;;7383590;19;20007;-75
2023/10/17 14:12:17;;;;;;;14.10;3.78;;;16.90;83.60;;;;;;7384160;19;20002;-75
2023/10/17 14:14:46;;;;;;;13.65;3.78;;;16.90;84.00;;;;;;7383426;19;20006;-75
2023/10/17 14:17:14;;;;;;;9.95;3.85;;;16.90;84.30;;;;;;7404256;19;20083;-74
2023/10/17 14:19:49;;;;;;;9.95;3.63;;;16.90;84.50;;;;;;7385667;19;20042;-79
2023/10/17 14:25:10;;;;;;;10.50;3.47;;;17.00;84.40;;;;;;7382455;19;20011;-76
2023/10/17 14:27:37;;;;;;;13.20;3.90;;;17.00;84.20;;;;;;7383873;19;20078;-76
2023/10/17 14:30:11;;;;;;;11.10;3.67;;;17.10;84.30;;;;;;7383236;19;20026;-78
2023/10/17 14:32:40;;;;;;;19.02;3.42;;;17.10;84.10;;;;;;7404462;19;20006;-80
2023/10/17 14:35:10;;;;;;;15.90;3.60;;;17.10;83.80;;;;;;7384103;19;20009;-78
2023/10/17 14:37:42;;;;;;;6.93;3.30;;;17.10;83.80;;;;;;7379508;19;20002;-77
2023/10/17 14:40:17;;;;;;;8.90;3.35;;;17.10;83.80;;;;;;7384774;19;20328;-77
2023/10/17 14:42:47;;;;;;;8.23;3.30;;;17.10;83.90;;;;;;7383414;19;20011;-75
2023/10/17 14:45:16;;;;;;;10.50;3.10;;;17.20;84.20;;;;;;7382444;19;20251;-77
2023/10/17 14:47:48;;;;;;;11.63;3.45;;;17.20;84.50;;;;;;7380434;19;20025;-78
2023/10/17 14:50:16;;;;;;;12.07;3.50;;;17.20;84.70;;;;;;7402582;19;20006;-77
2023/10/17 14:52:48;;;;;;;6.45;3.25;;;17.20;84.70;;;;;;7382045;19;20006;-78
2023/10/17 14:55:23;;;;;;;8.70;3.47;;;17.20;84.80;;;;;;7382933;19;20007;-77
2023/10/17 14:57:53;;;;;;;14.20;3.30;;;17.20;84.80;;;;;;7383220;19;20248;-78
2023/10/17 15:00:22;;;;;;;14.05;3.92;;;17.10;84.70;;;;;;7381204;19;20399;-77
2023/10/17 15:02:51;;;;;;;7.65;3.95;;;17.10;84.80;;;;;;7382871;19;20010;-77
2023/10/17 15:05:20;;;;;;;6.13;3.10;;;17.10;85.00;;;;;;7402194;19;20055;-76
2023/10/17 15:07:51;;;;;;;12.23;3.70;;;17.10;85.00;;;;;;7381001;19;20228;-75
2023/10/17 15:10:20;;;;;;;15.07;4.05;;;17.10;85.10;;;;;;7381893;19;19999;-77
2023/10/17 15:12:52;;;;;;;9.63;3.75;;;17.10;85.20;;;;;;7383345;19;20031;-77